Home > Products > Valid Products > TAF

000
FTUS45 KMSO 250536
TAFGPI
TAF
KGPI 250536Z 2506/2606 VRB03KT P6SM -RA OVC050
     FM250700 VRB03KT P6SM BKN100
     FM252100 16008KT P6SM FEW150=



000
FTUS45 KMSO 250536
TAFSMN
TAF
KSMN 250536Z 2506/2606 00000KT 1/4SM FG OVC001
     FM251600 VRB03KT P6SM SKC
     FM252000 21010KT P6SM SCT120
      AMD LTD TO CLD VIS AND WIND=



000
FTUS45 KMSO 250536
TAFBTM
TAF
KBTM 250536Z 2506/2606 18005KT P6SM SKC
     FM251900 18010G20KT P6SM FEW120=



000
FTUS45 KMSO 250536
TAFMSO
TAF
KMSO 250536Z 2506/2606 VRB03KT P6SM SCT040
     FM251100 00000KT 1SM BR SCT002
     FM251600 13004KT P6SM SCT120=



000
FTUS45 KMSO 242320
TAFMSO
TAF
KMSO 242320Z 2500/2524 19004KT P6SM -RA OVC060
     FM250400 13005KT P6SM SKC
     FM252100 13008KT P6SM SCT150=



000
FTUS45 KMSO 242320
TAFSMN
TAF
KSMN 242320Z 2500/2524 00000KT P6SM OVC110
     FM250100 18003KT P6SM SKC
     FM252000 21009KT P6SM SKC
      AMD LTD TO CLD VIS AND WIND=



000
FTUS45 KMSO 242320
TAFBTM
TAF
KBTM 242320Z 2500/2524 00000KT P6SM -SHRA OVC070
     FM250300 18005KT P6SM SKC
     FM251900 18008G15KT P6SM SKC=



000
FTUS45 KMSO 242320
TAFGPI
TAF
KGPI 242320Z 2500/2524 13004KT P6SM SKC
     FM250300 VRB05KT P6SM -RA FEW020 SCT030 OVC050
     FM251000 03003KT P6SM SKC
     FM252100 16008KT P6SM FEW150=



000
FTUS45 KMSO 241759 AAA
TAFSMN
TAF AMD
KSMN 241759Z 2418/2518 01003KT P6SM VCSH SCT010 BKN030
      TEMPO 2418/2420 OVC010
     FM242000 03004KT P6SM SCT080
     FM250100 18003KT P6SM SKC
      AMD LTD TO CLD VIS AND WIND=



000
FTUS45 KMSO 241731
TAFMSO
TAF
KMSO 241731Z 2418/2518 27003KT P6SM VCSH OVC050
     FM242000 12005KT 6SM -RA FEW020 SCT040 OVC050
     FM250400 13005KT P6SM SKC=



000
FTUS45 KMSO 241731
TAFBTM
TAF
KBTM 241731Z 2418/2518 29010KT P6SM -RA FEW030 BKN040
     FM242300 27006KT P6SM SCT100
     FM250300 18005KT P6SM SKC=



000
FTUS45 KMSO 241731
TAFSMN
TAF
KSMN 241731Z 2418/2518 01003KT P6SM VCSH SCT010 BKN030
     FM242000 03004KT P6SM SCT080
     FM250100 18003KT P6SM SKC
      AMD LTD TO CLD VIS AND WIND=



000
FTUS45 KMSO 241731
TAFGPI
TAF
KGPI 241731Z 2418/2518 20007KT P6SM SCT110
     FM250300 18008KT 6SM -RA FEW020 SCT030 OVC050
     FM251000 03003KT P6SM SKC=



000
FTUS45 KMSO 241121
TAFSMN
TAF
KSMN 241121Z 2412/2512 23008KT P6SM VCSH BKN070
     FM241400 VRB06KT P6SM -SHRA BKN050
     FM241800 VRB06KT P6SM VCSH BKN070
     FM242000 VRB04KT P6SM FEW100
      AMD LTD TO CLD VIS AND WIND=



000
FTUS45 KMSO 241121
TAFBTM
TAF
KBTM 241121Z 2412/2512 24006KT P6SM BKN080
     FM241700 26010KT P6SM VCSH BKN080
     FM242300 27006KT P6SM BKN100=



000
FTUS45 KMSO 241121
TAFMSO
TAF
KMSO 241121Z 2412/2512 VRB05KT P6SM VCSH BKN050
     FM241600 VRB04KT P6SM BKN080
     FM242000 10005KT P6SM -RA FEW020 SCT040 OVC050
     FM250400 VRB05KT P6SM SCT050=



000
FTUS45 KMSO 241121
TAFGPI
TAF
KGPI 241121Z 2412/2512 20010KT P6SM BKN080
     FM250300 18008KT 6SM -RA FEW020 SCT030 OVC050=



000
FTUS45 KMSO 240524
TAFBTM
TAF
KBTM 240524Z 2406/2506 24006KT P6SM BKN100=



000
FTUS45 KMSO 240524
TAFGPI
TAF
KGPI 240524Z 2406/2506 21010KT P6SM OVC100
     FM240700 20010KT P6SM OVC050
     FM250300 18008KT 6SM -RA FEW020 SCT030 OVC050=



000
FTUS45 KMSO 240524
TAFSMN
TAF
KSMN 240524Z 2406/2506 23008KT P6SM VCSH BKN070
     FM241200 VRB06KT P6SM -SHRA BKN050
     FM241500 VRB06KT P6SM VCSH BKN070
     FM242000 VRB04KT P6SM FEW100
      AMD LTD TO CLD VIS AND WIND=



000
FTUS45 KMSO 240524
TAFMSO
TAF
KMSO 240524Z 2406/2506 VRB05KT P6SM VCSH BKN050
     FM241800 VRB04KT P6SM BKN080
     FM242000 10005KT P6SM -RA FEW020 SCT040 OVC050
     FM250400 VRB05KT P6SM SCT050=



000
FTUS45 KMSO 240204 AAA
TAFBTM
TAF AMD
KBTM 240204Z 2402/2424 26011KT P6SM -RA BKN050
     FM240500 25007KT P6SM VCSH BKN050=



000
FTUS45 KMSO 240204 AAA
TAFBTM
TAF AMD
KBTM 240204Z 2402/2424 26011KT P6SM -RA BKN050
     FM240500 25007KT P6SM VCSH BKN050=



000
FTUS45 KMSO 232322
TAFBTM
TAF
KBTM 232322Z 2400/2424 25012G20KT P6SM VCSH BKN070
     FM240200 23008KT P6SM BKN080=



000
FTUS45 KMSO 232322
TAFMSO
TAF
KMSO 232322Z 2400/2424 20012G20KT P6SM -SHRA BKN060
     FM240200 27011KT P6SM -SHRA OVC050
     FM240800 VRB05KT P6SM VCSH BKN050
     FM241800 VRB04KT P6SM BKN100=



000
FTUS45 KMSO 232322
TAFSMN
TAF
KSMN 232322Z 2400/2424 23008KT P6SM -SHRA BKN070
     FM241800 VRB04KT P6SM VCSH BKN080
      AMD LTD TO CLD VIS AND WIND=



000
FTUS45 KMSO 232322
TAFGPI
TAF
KGPI 232322Z 2400/2424 17007KT P6SM -SHRA BKN050
     FM240200 20007KT P6SM VCSH BKN070
     FM240600 VRB05KT P6SM BKN100=



000
FTUS45 KMSO 232210 AAA
TAFGPI
TAF AMD
KGPI 232210Z 2322/2418 19008KT 6SM RA BR BKN050
     FM232300 19010KT P6SM -SHRA BKN050
     FM240200 20007KT P6SM VCSH BKN070=



000
FTUS45 KMSO 231732
TAFGPI
TAF
KGPI 231732Z 2318/2418 18007KT P6SM -SHRA OVC050
     FM232200 17008KT P6SM VCSH BKN060=



000
FTUS45 KMSO 231732
TAFMSO
TAF
KMSO 231732Z 2318/2418 15006KT P6SM VCSH OVC070
     FM232000 21012G20KT P6SM VCSH BKN060
     FM240200 27011KT P6SM -SHRA OVC050
     FM240400 VRB05KT P6SM VCSH BKN050=



000
FTUS45 KMSO 231732
TAFBTM
TAF
KBTM 231732Z 2318/2418 VRB06KT P6SM BKN050
     FM232000 23020G30KT P6SM VCSH BKN070
     FM240200 23008KT P6SM BKN080=



000
FTUS45 KMSO 231732
TAFSMN
TAF
KSMN 231732Z 2318/2418 23009KT P6SM VCSH BKN070
     FM232100 23009KT P6SM -SHRA BKN050
      AMD LTD TO CLD VIS AND WIND=



000
FTUS45 KMSO 231120
TAFGPI
TAF
KGPI 231120Z 2312/2412 19006KT P6SM VCSH OVC050
     FM231300 17005KT P6SM -RA OVC035
     FM231800 19012KT P6SM -SHRA OVC050
     FM240100 VRB06KT P6SM VCSH BKN050=



000
FTUS45 KMSO 231120
TAFSMN
TAF
KSMN 231120Z 2312/2412 VRB05KT P6SM BKN070
     FM232100 23007KT P6SM VCSH BKN080
      AMD LTD TO CLD VIS AND WIND=



000
FTUS45 KMSO 231120
TAFBTM
TAF
KBTM 231120Z 2312/2412 24005KT P6SM BKN070
     FM231900 23014G23KT P6SM VCSH BKN070
     FM240200 23008KT P6SM BKN080=



000
FTUS45 KMSO 231120
TAFMSO
TAF
KMSO 231120Z 2312/2412 15006KT P6SM VCSH OVC060
     FM232000 21012G20KT P6SM VCSH BKN060=



000
FTUS45 KMSO 230526
TAFBTM
TAF
KBTM 230526Z 2306/2406 24005KT P6SM SKC
     FM230900 18006KT P6SM BKN120
     FM231800 23014G23KT P6SM BKN070=



000
FTUS45 KMSO 230526
TAFMSO
TAF
KMSO 230526Z 2306/2406 13006KT P6SM BKN070
     FM231300 15006KT P6SM VCSH OVC060
     FM232000 21012G20KT P6SM VCSH BKN060=



000
FTUS45 KMSO 230526
TAFGPI
TAF
KGPI 230526Z 2306/2406 17006KT P6SM OVC060
     FM230700 19006KT P6SM VCSH OVC050
     FM231100 17005KT P6SM -RA OVC035
     FM231800 19012KT P6SM -SHRA OVC050=



000
FTUS45 KMSO 230526
TAFSMN
TAF
KSMN 230526Z 2306/2406 VRB05KT P6SM SCT150
     FM230900 VRB05KT P6SM BKN120
     FM232100 23007KT P6SM BKN080
      AMD LTD TO CLD VIS AND WIND=



000
FTUS45 KMSO 230213 AAA
TAFMSO
TAF AMD
KMSO 230213Z 2302/2324 13006KT P6SM BKN070
     FM231300 15006KT P6SM VCSH OVC060
     FM232000 21012G20KT P6SM VCSH BKN060=



000
FTUS45 KMSO 230213 AAA
TAFMSO
TAF AMD
KMSO 230213Z 2302/2324 13006KT P6SM BKN070
     FM231300 15006KT P6SM VCSH OVC060
     FM232000 21012G20KT P6SM VCSH BKN060=



000
FTUS45 KMSO 222337
TAFSMN
TAF
KSMN 222337Z 2300/2324 VRB05KT P6SM SCT150
     FM230900 VRB05KT P6SM BKN120
     FM232100 23007KT P6SM BKN080
      AMD LTD TO CLD VIS AND WIND=



000
FTUS45 KMSO 222337
TAFGPI
TAF
KGPI 222337Z 2300/2324 16012KT P6SM BKN060
     FM230100 17006KT P6SM OVC060
     FM230600 19006KT P6SM VCSH OVC050
     FM231100 17005KT P6SM -RA OVC035
     FM231800 19012KT P6SM -SHRA OVC050=



000
FTUS45 KMSO 222337
TAFMSO
TAF
KMSO 222337Z 2300/2324 15008KT P6SM BKN070
     FM230200 VRB04KT P6SM BKN070=



000
FTUS45 KMSO 222337
TAFBTM
TAF
KBTM 222337Z 2300/2324 24005KT P6SM SKC
     FM230900 18006KT P6SM BKN120
     FM231800 23014G23KT P6SM BKN070=



000
FTUS45 KMSO 222053 AAB
TAFMSO
TAF AMD
KMSO 222053Z 2221/2318 16012KT P6SM FEW002
     FM230100 VRB04KT P6SM OVC100=



000
FTUS45 KMSO 222053 AAA
TAFGPI
TAF AMD
KGPI 222053Z 2221/2318 16012KT P6SM SKC
     FM230100 18006KT P6SM OVC100
     FM230600 19006KT P6SM VCSH OVC050=



000
FTUS45 KMSO 221721
TAFSMN
TAF
KSMN 221721Z 2218/2318 23005KT P6SM SCT150
      AMD LTD TO CLD VIS AND WIND=



000
FTUS45 KMSO 221721
TAFBTM
TAF
KBTM 221721Z 2218/2318 VRB03KT P6SM SKC
     FM222100 24008G15KT P6SM SCT120
     FM230000 24005KT P6SM BKN120=



000
FTUS45 KMSO 221721
TAFSMN
TAF
KSMN 221721Z 2218/2318 23005KT P6SM SCT150
      AMD LTD TO CLD VIS AND WIND=



000
FTUS45 KMSO 221721
TAFGPI
TAF
KGPI 221721Z 2218/2318 VRB04KT P6SM SKC
     FM222300 18006KT P6SM OVC100
     FM230600 19006KT P6SM VCSH OVC050=



000
FTUS45 KMSO 221721
TAFMSO
TAF
KMSO 221721Z 2218/2318 00000KT P6SM FEW002
     FM222300 VRB04KT P6SM OVC100=



000
FTUS45 KMSO 221721
TAFGPI
TAF
KGPI 221721Z 2218/2318 VRB04KT P6SM SKC
     FM222300 18006KT P6SM OVC100
     FM230600 19006KT P6SM VCSH OVC050=



000
FTUS45 KMSO 221721
TAFBTM
TAF
KBTM 221721Z 2218/2318 VRB03KT P6SM SKC
     FM222100 24008G15KT P6SM SCT120
     FM230000 24005KT P6SM BKN120=



000
FTUS45 KMSO 221721
TAFMSO
TAF
KMSO 221721Z 2218/2318 00000KT P6SM FEW002
     FM222300 VRB04KT P6SM OVC100=



000
FTUS45 KMSO 221541 AAD
TAFMSO
TAF AMD
KMSO 221541Z 2216/2312 00000KT 4SM BR SCT002
     FM221630 VRB04KT P6SM FEW002 SCT080=



000
FTUS45 KMSO 221541 AAD
TAFMSO
TAF AMD
KMSO 221541Z 2216/2312 00000KT 4SM BR SCT002
     FM221630 VRB04KT P6SM FEW002 SCT080=



000
FTUS45 KMSO 221540 AAC
TAFSMN
TAF AMD
KSMN 221540Z 2216/2312 00000KT 1/4SM FG OVC002
     FM221700 VRB03KT P6SM FEW002 SCT120
      AMD LTD TO CLD VIS AND WIND=



000
FTUS45 KMSO 221540 AAC
TAFSMN
TAF AMD
KSMN 221540Z 2216/2312 00000KT 1/4SM FG OVC002
     FM221700 VRB03KT P6SM FEW002 SCT120
      AMD LTD TO CLD VIS AND WIND=



000
FTUS45 KMSO 221453 AAC
TAFMSO
TAF AMD
KMSO 221453Z 2215/2312 00000KT 2SM BR SCT002
      TEMPO 2215/2216 1/4SM FG VV002
     FM221600 VRB04KT P6SM FEW002 SCT080=



000
FTUS45 KMSO 221430 AAB
TAFSMN
TAF AMD
KSMN 221430Z 2215/2312 00000KT 6SM BR OVC002
     FM221530 VRB03KT P6SM FEW002 SCT120
      AMD LTD TO CLD VIS AND WIND=



000
FTUS45 KMSO 221349 AAA
TAFSMN
TAF AMD
KSMN 221349Z 2214/2312 00000KT 2SM BR SKC
     FM221430 VRB03KT P6SM SCT120
      AMD LTD TO CLD VIS AND WIND=



000
FTUS45 KMSO 221348 AAC
TAFMSO
TAF AMD
KMSO 221348Z 2214/2312 00000KT 5SM BR SCT003
     FM221530 VRB04KT P6SM SCT080 SCT120=



000
FTUS45 KMSO 221303 AAB
TAFMSO
TAF AMD
KMSO 221303Z 2213/2312 00000KT 2SM BR BKN001
      TEMPO 2213/2214 3/4SM BR BKN003
     FM221400 00000KT 1/2SM FG VV002
     FM221530 VRB04KT P6SM SCT080 SCT120=



000
FTUS45 KMSO 221259 AAA
TAFMSO
TAF AMD
KMSO 221259Z 2213/2312 00000KT 3SM BR SCT003
      TEMPO 2213/2214 3/4SM BR BKN003
     FM221400 00000KT 1/2SM FG VV002
     FM221530 VRB04KT P6SM SCT080 SCT120=



000
FTUS45 KMSO 221121
TAFGPI
TAF
KGPI 221121Z 2212/2312 14004KT 6SM BR SCT040
     FM221330 VRB03KT P6SM BKN080=



000
FTUS45 KMSO 221121
TAFMSO
TAF
KMSO 221121Z 2212/2312 00000KT 1SM BR SCT003
      TEMPO 2212/2213 3/4SM BR BKN003
     FM221300 00000KT 1/2SM FG VV002
     FM221530 VRB04KT P6SM SCT080 SCT120=



000
FTUS45 KMSO 221121
TAFSMN
TAF
KSMN 221121Z 2212/2312 00000KT 3SM BR SKC
      TEMPO 2212/2213 1SM BR
     FM221330 VRB03KT P6SM SCT120
      AMD LTD TO CLD VIS AND WIND=



000
FTUS45 KMSO 221121
TAFBTM
TAF
KBTM 221121Z 2212/2312 VRB03KT P6SM VCFG SKC
     FM221400 15005KT P6SM SCT060
     FM221900 24008G15KT P6SM SCT120=



000
FTUS45 KMSO 220803 AAA
TAFSMN
TAF AMD
KSMN 220803Z 2208/2306 VRB05KT 1SM BR SCT005
      TEMPO 2208/2210 1/2SM FG
     FM221000 00000KT 1/2SM FG BKN005
     FM221300 VRB03KT P6SM BKN010
     FM221500 VRB04KT P6SM SCT100
      AMD LTD TO CLD VIS AND WIND=



    US Dept of Commerce
    National Oceanic and Atmospheric Administration
    National Weather Service
    1325 East West Highway
    Silver Spring, MD 20910
    Page Author: NWS Internet Services Team
Disclaimer
Information Quality
Credits
Glossary
Privacy Policy
Freedom of Information Act (FOIA)
About Us
Career Opportunities